Time;durP1;ratioP1;P1;durP2;ratioP2;P2;SDS_P1;SDS_P2;PMS_P1;PMS_P2;Temp;Humidity;BMP_temperature;BMP_pressure;BME280_temperature;BME280_humidity;BME280_pressure;Samples;Min_cycle;Max_cycle;Signal;HPM_P1;HPM_P2
2021/10/29 00:00:36;;;;;;;46.03;19.60;;;;;;;;;;5091304;28;20082;-87
2021/10/29 00:03:04;;;;;;;45.85;20.27;;;;;;;;;;5082146;28;20552;-86
2021/10/29 00:05:32;;;;;;;46.28;20.20;;;;;;;;;;5095313;28;20058;-87
2021/10/29 00:07:59;;;;;;;37.95;17.30;;;;;;;;;;5081526;28;20052;-87
2021/10/29 00:10:27;;;;;;;40.42;19.65;;;;;;;;;;5097849;28;20489;-82
2021/10/29 00:12:54;;;;;;;48.55;19.75;;;;;;;;;;5090602;28;20392;-82
2021/10/29 00:15:22;;;;;;;43.67;19.08;;;;;;;;;;5083075;28;20473;-87
2021/10/29 00:17:50;;;;;;;40.47;18.85;;;;;;;;;;5083185;28;20074;-87
2021/10/29 00:20:17;;;;;;;45.20;19.92;;;;;;;;;;5110754;28;20075;-82
2021/10/29 00:22:44;;;;;;;40.22;18.98;;;;;;;;;;5090319;28;20043;-88
2021/10/29 00:25:11;;;;;;;42.45;18.27;;;;;;;;;;5075398;28;20138;-88
2021/10/29 00:27:42;;;;;;;49.88;20.90;;;;;;;;;;5094761;28;20647;-88
2021/10/29 00:30:10;;;;;;;40.05;18.38;;;;;;;;;;5113950;28;20066;-88
2021/10/29 00:32:37;;;;;;;45.83;19.42;;;;;;;;;;5083311;28;20065;-88
2021/10/29 00:35:05;;;;;;;49.22;20.13;;;;;;;;;;5091251;28;20449;-88
2021/10/29 00:37:37;;;;;;;42.80;20.02;;;;;;;;;;5090857;28;20075;-88
2021/10/29 00:40:05;;;;;;;40.10;19.00;;;;;;;;;;5091566;28;20052;-82
2021/10/29 00:42:36;;;;;;;47.38;20.55;;;;;;;;;;5093024;28;20119;-83
2021/10/29 00:45:07;;;;;;;40.97;19.70;;;;;;;;;;5088628;28;20493;-83
2021/10/29 00:47:34;;;;;;;42.42;20.27;;;;;;;;;;5094223;28;20139;-82
2021/10/29 00:50:01;;;;;;;38.67;18.98;;;;;;;;;;5094130;28;20134;-83
2021/10/29 00:52:28;;;;;;;46.15;20.27;;;;;;;;;;5100959;28;20139;-88
2021/10/29 00:54:55;;;;;;;47.22;20.25;;;;;;;;;;5092140;28;20490;-88
2021/10/29 00:57:23;;;;;;;43.60;20.83;;;;;;;;;;5094350;28;20460;-87
2021/10/29 00:59:50;;;;;;;48.15;20.65;;;;;;;;;;5083016;28;20097;-88
2021/10/29 01:02:17;;;;;;;54.20;21.55;;;;;;;;;;5084293;28;20047;-89
2021/10/29 01:04:45;;;;;;;44.75;20.30;;;;;;;;;;5109560;28;20488;-88
2021/10/29 01:07:12;;;;;;;54.65;22.75;;;;;;;;;;5072576;28;20083;-88
2021/10/29 01:09:40;;;;;;;50.38;22.73;;;;;;;;;;5084337;28;20145;-88
2021/10/29 01:12:07;;;;;;;52.17;21.85;;;;;;;;;;5068070;28;20166;-88
2021/10/29 01:14:34;;;;;;;51.17;23.73;;;;;;;;;;5075029;28;20112;-88
2021/10/29 01:17:02;;;;;;;56.70;22.63;;;;;;;;;;5086937;28;20079;-82
2021/10/29 01:19:33;;;;;;;55.40;21.95;;;;;;;;;;5071499;28;20054;-82
2021/10/29 01:22:01;;;;;;;53.83;21.70;;;;;;;;;;5076930;28;20075;-83
2021/10/29 01:24:28;;;;;;;47.40;22.38;;;;;;;;;;5099085;28;20043;-82
2021/10/29 01:26:56;;;;;;;54.17;23.75;;;;;;;;;;5088267;28;20052;-83
2021/10/29 01:29:24;;;;;;;54.05;23.55;;;;;;;;;;5074919;28;20767;-82
2021/10/29 01:31:51;;;;;;;62.42;24.75;;;;;;;;;;5082917;28;20154;-83
2021/10/29 01:34:19;;;;;;;53.65;24.20;;;;;;;;;;5088775;28;20575;-83
2021/10/29 01:36:47;;;;;;;48.97;23.17;;;;;;;;;;5087789;28;20349;-82
2021/10/29 01:39:15;;;;;;;60.92;24.65;;;;;;;;;;5078775;28;20048;-82
2021/10/29 01:41:42;;;;;;;61.33;25.83;;;;;;;;;;5091928;28;20140;-82
2021/10/29 01:44:09;;;;;;;63.13;24.73;;;;;;;;;;5090109;28;20102;-83
2021/10/29 01:46:36;;;;;;;56.17;25.42;;;;;;;;;;5077976;28;20122;-83
2021/10/29 01:49:03;;;;;;;66.75;26.02;;;;;;;;;;5101560;28;20550;-83
2021/10/29 01:51:31;;;;;;;63.28;25.27;;;;;;;;;;5084005;28;20068;-83
2021/10/29 01:53:58;;;;;;;75.72;26.60;;;;;;;;;;5111917;28;20131;-83
2021/10/29 01:56:26;;;;;;;64.15;26.17;;;;;;;;;;5095644;28;20134;-83
2021/10/29 01:58:53;;;;;;;66.20;26.55;;;;;;;;;;5088124;28;20080;-83
2021/10/29 02:01:20;;;;;;;60.58;25.05;;;;;;;;;;5095280;28;20058;-83
2021/10/29 02:03:48;;;;;;;65.95;27.63;;;;;;;;;;5085149;28;20051;-83
2021/10/29 02:06:18;;;;;;;65.57;27.45;;;;;;;;;;5087330;28;20079;-83
2021/10/29 02:08:46;;;;;;;82.43;28.50;;;;;;;;;;5084830;28;20496;-83
2021/10/29 02:11:13;;;;;;;68.40;28.00;;;;;;;;;;5075815;28;20139;-83
2021/10/29 02:13:40;;;;;;;66.03;26.70;;;;;;;;;;5077003;28;20083;-84
2021/10/29 02:16:07;;;;;;;73.38;28.85;;;;;;;;;;5085755;28;20499;-82
2021/10/29 02:18:35;;;;;;;69.03;28.40;;;;;;;;;;5095815;28;20047;-84
2021/10/29 02:21:02;;;;;;;70.20;27.85;;;;;;;;;;5095757;28;20048;-84
2021/10/29 02:23:30;;;;;;;80.50;30.40;;;;;;;;;;5085762;28;20126;-83
2021/10/29 02:25:57;;;;;;;67.28;29.48;;;;;;;;;;5097008;28;20048;-84
2021/10/29 02:28:24;;;;;;;68.28;29.48;;;;;;;;;;5080004;28;20134;-83
2021/10/29 02:30:51;;;;;;;66.90;27.00;;;;;;;;;;5081825;28;20068;-84
2021/10/29 02:33:20;;;;;;;78.95;28.70;;;;;;;;;;5080914;28;20047;-83
2021/10/29 02:35:47;;;;;;;68.03;27.25;;;;;;;;;;5104249;28;20441;-83
2021/10/29 02:38:15;;;;;;;69.07;27.02;;;;;;;;;;5077553;28;20492;-84
2021/10/29 02:40:42;;;;;;;64.40;27.42;;;;;;;;;;5094966;28;20675;-83
2021/10/29 02:43:09;;;;;;;70.50;26.92;;;;;;;;;;5107565;28;20134;-83
2021/10/29 02:45:37;;;;;;;60.95;27.70;;;;;;;;;;5056314;28;1049630;-83
2021/10/29 02:48:05;;;;;;;68.93;28.65;;;;;;;;;;5090113;28;20050;-83
2021/10/29 02:50:35;;;;;;;71.22;28.17;;;;;;;;;;5095130;28;20051;-83
2021/10/29 02:53:04;;;;;;;78.65;27.42;;;;;;;;;;5085943;28;20086;-83
2021/10/29 02:55:32;;;;;;;67.43;27.98;;;;;;;;;;5079780;28;20079;-83
2021/10/29 02:57:59;;;;;;;72.35;29.85;;;;;;;;;;5094202;28;20108;-83
2021/10/29 03:00:28;;;;;;;67.35;27.63;;;;;;;;;;5085597;28;20071;-84
2021/10/29 03:02:56;;;;;;;67.40;26.90;;;;;;;;;;5086372;28;20040;-83
2021/10/29 03:05:24;;;;;;;69.35;28.58;;;;;;;;;;5091791;28;20399;-83
2021/10/29 03:07:51;;;;;;;70.25;27.33;;;;;;;;;;5096427;28;20051;-83
2021/10/29 03:10:20;;;;;;;63.33;28.67;;;;;;;;;;5095130;28;20052;-83
2021/10/29 03:12:47;;;;;;;66.63;27.27;;;;;;;;;;5109044;28;20082;-83
2021/10/29 03:15:14;;;;;;;57.22;26.33;;;;;;;;;;5103068;28;20142;-84
2021/10/29 03:17:42;;;;;;;74.45;28.13;;;;;;;;;;5093471;28;20777;-83
2021/10/29 03:20:10;;;;;;;67.00;27.25;;;;;;;;;;5087485;28;20127;-83
2021/10/29 03:22:37;;;;;;;72.05;28.13;;;;;;;;;;5096283;28;20067;-83
2021/10/29 03:25:05;;;;;;;76.05;27.58;;;;;;;;;;5087133;28;20078;-83
2021/10/29 03:27:33;;;;;;;71.63;26.48;;;;;;;;;;5106647;28;20138;-82
2021/10/29 03:30:05;;;;;;;63.33;26.65;;;;;;;;;;5088598;28;20047;-82
2021/10/29 03:32:33;;;;;;;63.20;26.60;;;;;;;;;;5096256;28;20047;-82
2021/10/29 03:35:00;;;;;;;64.90;27.40;;;;;;;;;;5102526;28;20083;-82
2021/10/29 03:40:16;;;;;;;72.47;29.25;;;;;;;;;;5105219;28;20082;-82
2021/10/29 03:42:58;;;;;;;75.05;29.70;;;;;;;;;;5095751;28;20048;-82
2021/10/29 03:45:25;;;;;;;70.57;27.95;;;;;;;;;;5095002;28;20131;-82
2021/10/29 03:47:56;;;;;;;66.07;28.15;;;;;;;;;;5113509;28;20051;-82
2021/10/29 03:50:26;;;;;;;74.47;28.75;;;;;;;;;;5094189;28;20534;-82
2021/10/29 03:53:02;;;;;;;70.00;28.45;;;;;;;;;;5085557;28;20086;-83
2021/10/29 03:55:35;;;;;;;76.20;29.05;;;;;;;;;;5089526;28;20131;-83
2021/10/29 03:58:02;;;;;;;71.40;29.25;;;;;;;;;;5085553;28;20135;-83
2021/10/29 04:00:30;;;;;;;77.75;28.63;;;;;;;;;;5087450;28;20086;-83
2021/10/29 04:03:02;;;;;;;77.05;28.95;;;;;;;;;;5083042;28;20078;-84
2021/10/29 04:05:30;;;;;;;66.28;27.38;;;;;;;;;;5076404;28;20124;-83
2021/10/29 04:07:58;;;;;;;68.47;27.63;;;;;;;;;;5091908;28;20145;-83
2021/10/29 04:10:27;;;;;;;70.03;27.27;;;;;;;;;;5075503;28;20143;-83
2021/10/29 04:12:55;;;;;;;71.00;27.42;;;;;;;;;;5092451;28;20060;-84
2021/10/29 04:15:22;;;;;;;73.43;28.67;;;;;;;;;;5085945;28;20590;-83
2021/10/29 04:17:50;;;;;;;77.07;29.20;;;;;;;;;;5092665;28;20414;-84
2021/10/29 04:20:17;;;;;;;84.97;27.65;;;;;;;;;;5111441;28;20556;-83
2021/10/29 04:22:44;;;;;;;80.68;30.98;;;;;;;;;;5076190;28;20064;-83
2021/10/29 04:25:12;;;;;;;75.15;29.05;;;;;;;;;;5075931;28;20052;-83
2021/10/29 04:27:48;;;;;;;79.75;30.05;;;;;;;;;;5078114;28;20047;-83
2021/10/29 04:30:18;;;;;;;79.72;29.45;;;;;;;;;;5091428;28;20083;-84
2021/10/29 04:32:49;;;;;;;72.88;29.02;;;;;;;;;;5108357;28;20767;-84
2021/10/29 04:35:16;;;;;;;72.57;28.77;;;;;;;;;;5090825;28;20714;-83
2021/10/29 04:37:43;;;;;;;75.07;29.27;;;;;;;;;;5103785;28;20130;-82
2021/10/29 04:40:10;;;;;;;71.43;29.60;;;;;;;;;;5104174;28;20043;-83
2021/10/29 04:42:41;;;;;;;78.95;29.55;;;;;;;;;;5091337;28;20086;-83
2021/10/29 04:45:08;;;;;;;74.63;30.17;;;;;;;;;;5087690;28;20082;-82
2021/10/29 04:47:35;;;;;;;89.95;33.28;;;;;;;;;;5094680;28;20150;-86
2021/10/29 04:50:03;;;;;;;74.80;28.77;;;;;;;;;;5096898;28;20139;-87
2021/10/29 04:52:30;;;;;;;82.68;30.50;;;6.70;99.90;;;;;;5074035;28;20102;-84
2021/10/29 04:54:57;;;;;;;82.40;29.95;;;6.70;99.90;;;;;;5091749;28;20130;-82
2021/10/29 04:57:24;;;;;;;76.85;28.63;;;6.70;99.90;;;;;;5109895;28;20682;-83
2021/10/29 04:59:52;;;;;;;94.28;31.75;;;6.60;99.90;;;;;;5108150;28;20122;-84
2021/10/29 05:02:20;;;;;;;85.38;29.90;;;6.80;99.90;;;;;;5087602;28;20075;-83
2021/10/29 05:04:47;;;;;;;80.28;30.50;;;6.70;99.90;;;;;;5084770;28;20658;-88
2021/10/29 05:07:13;;;;;;;89.55;32.25;;;6.70;99.90;;;;;;5103840;28;20079;-86
2021/10/29 05:09:40;;;;;;;96.57;31.42;;;6.70;99.90;;;;;;5086168;28;20119;-83
2021/10/29 05:12:07;;;;;;;85.40;30.13;;;6.70;99.90;;;;;;5083109;28;20047;-84
2021/10/29 05:14:36;;;;;;;87.93;31.10;;;6.80;99.90;;;;;;5086140;28;20082;-81
2021/10/29 05:17:03;;;;;;;88.28;31.98;;;6.70;99.90;;;;;;5098447;28;20141;-82
2021/10/29 05:19:29;;;;;;;92.75;33.20;;;6.80;99.90;;;;;;5095123;28;20044;-83
2021/10/29 05:21:57;;;;;;;87.47;29.63;;;6.80;99.90;;;;;;5077786;28;20127;-84
2021/10/29 05:24:24;;;;;;;81.18;28.60;;;6.80;99.90;;;;;;5077319;28;20071;-84
2021/10/29 05:26:51;;;;;;;78.18;29.17;;;6.80;99.90;;;;;;5087813;28;20131;-84
2021/10/29 05:29:18;;;;;;;87.28;29.17;;;6.80;99.90;;;;;;5072644;28;20130;-84
2021/10/29 05:31:44;;;;;;;71.78;29.75;;;6.70;99.90;;;;;;5075409;28;20051;-84
2021/10/29 05:34:11;;;;;;;81.35;31.75;;;6.80;99.90;;;;;;5084209;28;20083;-84
2021/10/29 05:36:38;;;;;;;86.50;29.02;;;6.80;99.90;;;;;;5079128;28;20138;-84
2021/10/29 05:39:06;;;;;;;91.40;35.53;;;6.80;99.90;;;;;;5083720;28;20498;-84
2021/10/29 05:41:33;;;;;;;88.32;32.67;;;6.80;99.90;;;;;;5086316;28;20464;-85
2021/10/29 05:44:00;;;;;;;82.93;31.65;;;6.80;99.90;;;;;;5075819;28;20146;-84
2021/10/29 05:46:30;;;;;;;91.15;31.88;;;6.80;99.90;;;;;;5091422;28;20130;-84
2021/10/29 05:48:58;;;;;;;89.93;30.15;;;6.80;99.90;;;;;;5078200;28;20078;-86
2021/10/29 05:51:26;;;;;;;95.85;31.38;;;6.80;99.90;;;;;;5074430;28;20052;-85
2021/10/29 05:56:39;;;;;;;;;;;6.70;99.90;;;;;;5097017;28;20077;-84
2021/10/29 05:59:06;;;;;;;97.68;33.28;;;6.80;99.90;;;;;;5093128;28;19930;-84
2021/10/29 06:01:33;;;;;;;90.10;32.60;;;6.80;99.90;;;;;;5093334;28;20075;-86
2021/10/29 06:04:00;;;;;;;90.75;31.95;;;6.70;99.90;;;;;;5086474;28;20093;-85
2021/10/29 06:06:27;;;;;;;92.32;31.73;;;6.70;99.90;;;;;;5102911;28;20047;-84
2021/10/29 06:08:56;;;;;;;99.97;32.08;;;6.70;99.90;;;;;;5098254;28;20881;-84
2021/10/29 06:11:26;;;;;;;90.85;31.48;;;6.70;99.90;;;;;;5090002;28;20051;-84
2021/10/29 06:13:54;;;;;;;97.40;32.63;;;6.80;99.90;;;;;;5099094;28;20060;-84
2021/10/29 06:16:22;;;;;;;88.95;32.22;;;6.80;99.90;;;;;;5084503;28;20071;-84
2021/10/29 06:18:49;;;;;;;84.32;31.13;;;6.70;99.90;;;;;;5093335;28;20072;-84
2021/10/29 06:21:21;;;;;;;98.28;32.35;;;6.70;99.90;;;;;;5073538;28;20079;-85
2021/10/29 06:23:59;;;;;;;96.55;34.63;;;6.80;99.90;;;;;;5073996;28;20123;-84
2021/10/29 06:26:28;;;;;;;92.00;31.55;;;6.70;99.90;;;;;;5073267;28;20072;-83
2021/10/29 06:28:55;;;;;;;93.65;32.67;;;6.80;99.90;;;;;;5098984;28;20068;-84
2021/10/29 06:31:22;;;;;;;100.25;33.17;;;6.80;99.90;;;;;;5080460;28;20123;-84
2021/10/29 06:33:49;;;;;;;89.30;30.73;;;6.80;99.90;;;;;;5077599;28;20048;-84
2021/10/29 06:36:16;;;;;;;100.57;32.17;;;6.80;99.90;;;;;;5087345;28;20051;-83
2021/10/29 06:38:45;;;;;;;87.68;32.33;;;6.90;99.90;;;;;;5089415;28;20765;-84
2021/10/29 06:41:12;;;;;;;86.57;29.25;;;6.90;99.90;;;;;;5088674;28;20048;-83
2021/10/29 06:44:02;;;;;;;92.07;34.05;;;6.90;99.90;;;;;;5097500;28;20075;-83
2021/10/29 06:46:41;;;;;;;94.97;31.33;;;7.00;99.90;;;;;;5076216;28;20056;-83
2021/10/29 07:00:24;;;;;;;84.32;29.25;;;7.10;99.90;;;;;;5106496;28;20082;-85
2021/10/29 07:41:05;;;;;;;84.43;30.55;;;7.90;99.90;;;;;;5093663;28;20059;-86
2021/10/29 07:44:13;;;;;;;84.53;30.48;;;8.10;99.90;;;;;;5093063;28;20210;-84
2021/10/29 07:46:30;;;;;;;80.55;30.23;;;8.20;99.90;;;;;;5090086;28;20131;-83
2021/10/29 07:48:57;;;;;;;84.63;31.98;;;8.20;99.90;;;;;;5086313;28;20075;-81
2021/10/29 07:51:24;;;;;;;94.82;32.45;;;8.20;99.90;;;;;;5100662;28;20874;-81
2021/10/29 07:53:52;;;;;;;90.82;32.45;;;8.20;99.90;;;;;;5108214;28;20116;-82
2021/10/29 07:56:18;;;;;;;75.78;32.08;;;8.30;99.90;;;;;;5088465;28;20123;-81
2021/10/29 07:58:47;;;;;;;96.55;32.38;;;8.30;99.90;;;;;;5083357;28;20607;-82
2021/10/29 08:01:14;;;;;;;81.88;31.30;;;8.50;99.90;;;;;;5087505;28;20813;-81
2021/10/29 08:03:41;;;;;;;78.82;31.48;;;8.60;99.90;;;;;;5103009;28;20043;-82
2021/10/29 08:06:08;;;;;;;87.38;30.80;;;8.70;99.90;;;;;;5087937;28;20055;-82
2021/10/29 08:08:34;;;;;;;82.43;32.05;;;8.80;99.90;;;;;;5101798;28;20138;-80
2021/10/29 08:11:01;;;;;;;81.10;30.40;;;8.90;99.90;;;;;;5110861;28;20098;-84
2021/10/29 08:13:29;;;;;;;83.55;30.63;;;;;;;;;;5086468;28;20142;-80
2021/10/29 08:15:59;;;;;;;75.95;28.55;;;8.90;99.90;;;;;;5083241;28;20250;-82
2021/10/29 08:18:26;;;;;;;83.28;30.73;;;9.20;99.90;;;;;;5101068;28;20127;-84
2021/10/29 08:20:53;;;;;;;75.03;30.42;;;9.10;99.90;;;;;;5090905;28;20087;-83
2021/10/29 08:23:20;;;;;;;76.55;29.15;;;9.30;99.90;;;;;;5088912;28;20717;-84
2021/10/29 08:25:48;;;;;;;77.18;29.52;;;9.30;99.90;;;;;;5095440;28;20507;-84
2021/10/29 08:28:14;;;;;;;79.25;29.85;;;9.40;99.90;;;;;;5112482;28;20039;-82
2021/10/29 08:30:52;;;;;;;81.47;30.40;;;;;;;;;;5087494;28;20044;-83
2021/10/29 08:33:20;;;;;;;66.10;27.98;;;;;;;;;;5079672;28;20516;-83
2021/10/29 08:35:49;;;;;;;70.65;27.90;;;9.70;99.90;;;;;;5078078;28;20044;-82
2021/10/29 08:38:17;;;;;;;72.28;26.90;;;9.80;99.90;;;;;;5076099;28;20102;-83
2021/10/29 08:40:44;;;;;;;66.03;28.77;;;9.90;99.90;;;;;;5092257;28;20401;-84
2021/10/29 08:43:13;;;;;;;71.40;27.40;;;10.00;99.90;;;;;;5076436;28;20043;-84
2021/10/29 08:45:41;;;;;;;74.97;27.50;;;9.90;99.90;;;;;;5078752;28;20044;-83
2021/10/29 08:48:09;;;;;;;60.53;26.73;;;10.00;99.90;;;;;;5081305;28;20086;-83
2021/10/29 08:50:35;;;;;;;67.18;27.52;;;10.10;99.90;;;;;;5085993;28;20096;-84
2021/10/29 08:53:02;;;;;;;62.40;27.45;;;10.10;99.90;;;;;;5110287;28;20073;-83
2021/10/29 08:55:32;;;;;;;64.05;26.00;;;10.20;99.90;;;;;;5091302;28;20063;-82
2021/10/29 08:58:02;;;;;;;72.43;25.30;;;10.30;99.90;;;;;;5094826;28;20134;-83
2021/10/29 09:00:34;;;;;;;65.28;24.58;;;10.40;99.90;;;;;;5092331;28;20054;-83
2021/10/29 09:03:17;;;;;;;61.10;25.50;;;10.50;99.90;;;;;;5100247;28;20067;-84
2021/10/29 09:06:18;;;;;;;59.75;24.42;;;10.50;99.90;;;;;;5112494;28;20083;-84
2021/10/29 09:09:03;;;;;;;54.97;24.30;;;10.50;99.90;;;;;;5093537;28;20102;-84
2021/10/29 09:11:58;;;;;;;53.47;22.90;;;10.60;99.90;;;;;;5092240;28;20117;-83
2021/10/29 09:31:31;;;;;;;42.53;18.73;;;11.40;99.90;;;;;;5075230;28;20080;-83
2021/10/29 09:34:12;;;;;;;36.83;18.10;;;11.40;99.90;;;;;;5064772;28;20052;-84
2021/10/29 09:36:40;;;;;;;42.25;18.90;;;11.50;99.90;;;;;;5065119;28;20055;-84
2021/10/29 09:39:09;;;;;;;38.67;17.48;;;11.70;99.90;;;;;;5058712;28;20044;-83
2021/10/29 09:41:37;;;;;;;35.58;17.27;;;11.80;99.90;;;;;;5062920;28;20071;-83
2021/10/29 09:44:18;;;;;;;35.03;17.85;;;12.30;99.90;;;;;;5064241;28;20064;-83
2021/10/29 09:46:54;;;;;;;32.28;15.95;;;12.50;99.90;;;;;;5084354;28;20079;-83
2021/10/29 09:49:31;;;;;;;31.17;15.38;;;;;;;;;;5083479;28;20079;-83
2021/10/29 09:57:33;;;;;;;30.60;14.25;;;13.10;99.90;;;;;;5082341;28;20040;-82
2021/10/29 10:00:13;;;;;;;35.13;15.07;;;;;;;;;;5058251;28;20036;-83
2021/10/29 10:02:44;;;;;;;27.73;14.20;;;13.80;99.90;;;;;;5066841;28;20136;-83
2021/10/29 10:05:15;;;;;;;26.40;14.43;;;14.10;99.90;;;;;;5070105;28;20044;-83
2021/10/29 10:07:45;;;;;;;29.05;14.27;;;14.30;99.90;;;;;;5068344;28;20055;-83
2021/10/29 10:10:30;;;;;;;24.25;14.00;;;;;;;;;;5063872;28;20048;-82
2021/10/29 10:12:58;;;;;;;24.52;12.65;;;;;;;;;;5067358;28;20045;-83
2021/10/29 10:15:27;;;;;;;26.98;13.05;;;;;;;;;;5068294;28;20133;-83
2021/10/29 10:17:55;;;;;;;24.48;12.57;;;;;;;;;;5068095;28;20072;-84
2021/10/29 10:20:24;;;;;;;31.25;12.45;;;;;;;;;;5067015;28;20123;-84
2021/10/29 10:22:51;;;;;;;28.02;12.02;;;;;;;;;;5070252;28;20041;-84
2021/10/29 10:28:45;;;;;;;23.02;11.55;;;;;;;;;;4983507;28;20093;-84
2021/10/29 10:43:41;;;;;;;19.88;10.85;;;;;;;;;;5044115;28;20127;-83
2021/10/29 10:48:52;;;;;;;21.83;11.20;;;;;;;;;;5085584;28;20044;-82
2021/10/29 10:51:30;;;;;;;18.42;9.77;;;;;;;;;;5090919;28;20127;-82
2021/10/29 10:54:03;;;;;;;24.08;10.95;;;;;;;;;;5087271;28;20040;-84
2021/10/29 11:10:58;;;;;;;20.35;12.05;;;;;;;;;;5085229;28;20050;-82
2021/10/29 11:13:45;;;;;;;21.05;12.23;;;;;;;;;;5068196;28;20075;-82
2021/10/29 11:16:30;;;;;;;22.27;12.55;;;;;;;;;;5065948;28;20747;-83
2021/10/29 11:19:08;;;;;;;27.67;12.30;;;;;;;;;;5071815;28;20185;-81
2021/10/29 11:21:36;;;;;;;27.77;13.45;;;;;;;;;;5061462;28;20043;-79
2021/10/29 11:24:05;;;;;;;25.77;11.98;;;;;;;;;;5053246;28;20082;-79
2021/10/29 11:26:37;;;;;;;23.65;11.98;;;;;;;;;;5057090;28;20044;-79
2021/10/29 11:29:05;;;;;;;25.75;11.77;;;;;;;;;;5077739;28;20138;-78
2021/10/29 11:31:39;;;;;;;22.30;11.85;;;;;;;;;;5074240;28;20110;-79
2021/10/29 11:34:08;;;;;;;21.58;11.05;;;;;;;;;;5068338;28;20059;-79
2021/10/29 11:36:36;;;;;;;23.15;11.55;;;;;;;;;;5084268;28;20062;-78
2021/10/29 11:39:05;;;;;;;18.77;10.82;;;;;;;;;;5084687;28;20539;-76
2021/10/29 11:41:34;;;;;;;25.58;11.60;;;;;;;;;;5069331;28;20059;-80
2021/10/29 11:44:13;;;;;;;22.02;11.32;;;;;;;;;;5064385;28;20050;-82
2021/10/29 11:46:42;;;;;;;20.38;9.77;;;;;;;;;;5069998;28;20130;-80
2021/10/29 11:49:09;;;;;;;22.77;10.35;;;;;;;;;;5070883;28;20075;-78
2021/10/29 11:51:37;;;;;;;24.05;9.57;;;;;;;;;;5072201;28;20048;-78
2021/10/29 12:07:32;;;;;;;16.67;9.43;;;;;;;;;;5079342;28;20128;-74
2021/10/29 12:10:02;;;;;;;16.58;9.48;;;;;;;;;;5083714;28;20070;-74
2021/10/29 12:12:30;;;;;;;22.02;9.80;;;;;;;;;;5075042;28;20048;-74
2021/10/29 12:15:06;;;;;;;16.13;9.32;;;;;;;;;;5070781;28;20091;-73
2021/10/29 12:17:43;;;;;;;21.00;9.27;;;;;;;;;;5076716;28;20043;-74
2021/10/29 12:20:14;;;;;;;20.95;9.50;;;;;;;;;;5054401;28;20048;-74
2021/10/29 12:22:50;;;;;;;18.52;9.55;;;;;;;;;;5074582;28;20132;-74
2021/10/29 12:25:44;;;;;;;16.88;9.82;;;;;;;;;;5078452;28;20047;-74
2021/10/29 12:28:19;;;;;;;16.20;7.35;;;;;;;;;;5084188;28;20562;-74
2021/10/29 12:30:56;;;;;;;13.82;7.85;;;;;;;;;;5085745;28;20048;-75
2021/10/29 12:53:10;;;;;;;13.35;6.32;;;;;;;;;;5074491;28;20075;-76
2021/10/29 13:04:01;;;;;;;9.25;5.45;;;;;;;;;;5075229;28;20006;-76
2021/10/29 13:06:32;;;;;;;12.18;5.40;;;;;;;;;;5075377;28;20433;-75
2021/10/29 13:09:01;;;;;;;8.25;5.18;;;;;;;;;;5071603;28;20151;-75
2021/10/29 13:11:34;;;;;;;7.78;5.10;;;;;;;;;;5073624;28;20048;-75
2021/10/29 13:14:04;;;;;;;8.00;5.20;;;;;;;;;;5077937;28;20082;-75
2021/10/29 13:16:32;;;;;;;11.95;4.82;;;;;;;;;;5079845;28;20489;-75
2021/10/29 13:19:19;;;;;;;9.25;4.72;;;;;;;;;;5062097;28;20042;-74
2021/10/29 13:36:03;;;;;;;11.57;5.60;;;17.20;99.90;;;;;;5076479;28;20142;-74
2021/10/29 13:50:20;;;;;;;15.40;5.22;;;17.10;99.90;;;;;;5076501;28;20127;-74
2021/10/29 13:55:31;;;;;;;12.18;4.72;;;;;;;;;;5078051;28;20048;-74
2021/10/29 13:58:18;;;;;;;10.10;4.38;;;;;;;;;;5065746;28;20467;-74
2021/10/29 14:01:10;;;;;;;9.68;4.60;;;;;;;;;;5058740;28;20750;-74
2021/10/29 14:30:41;;;;;;;;;;;;;;;;;;5080186;28;20044;-75
2021/10/29 14:35:40;;;;;;;10.95;4.57;;;;;;;;;;5085035;28;20139;-75
2021/10/29 14:48:32;;;;;;;13.88;5.72;;;;;;;;;;5076840;28;20039;-79
2021/10/29 14:52:00;;;;;;;16.92;6.60;;;;;;;;;;5065167;28;20127;-79
2021/10/29 15:02:35;;;;;;;16.88;5.47;;;;;;;;;;5116343;27;20126;-84
2021/10/29 15:05:30;;;;;;;16.73;6.72;;;;;;;;;;5126313;27;20481;-83
2021/10/29 15:30:57;;;;;;;16.27;7.28;;;;;;;;;;5119945;27;20079;-82
2021/10/29 15:41:09;;;;;;;;;;;;;;;;;;5122201;27;20047;-82
2021/10/29 15:46:58;;;;;;;21.80;7.80;;;;;;;;;;5134185;27;20078;-82
2021/10/29 15:52:12;;;;;;;18.33;7.80;;;;;;;;;;5123769;27;20082;-81
2021/10/29 15:55:03;;;;;;;18.50;8.05;;;;;;;;;;5113724;27;20042;-82
2021/10/29 15:57:31;;;;;;;16.52;7.43;;;;;;;;;;5120435;27;20082;-82
2021/10/29 16:00:09;;;;;;;19.17;8.50;;;;;;;;;;5113876;27;20126;-81
2021/10/29 16:18:57;;;;;;;18.10;7.78;;;;;;;;;;5117220;27;20323;-81
2021/10/29 16:21:25;;;;;;;20.20;8.77;;;;;;;;;;5129305;27;20134;-81
2021/10/29 16:23:52;;;;;;;15.63;8.63;;;;;;;;;;5130536;27;20122;-81
2021/10/29 16:26:22;;;;;;;15.80;8.55;;;;;;;;;;5131498;27;20078;-81
2021/10/29 16:28:51;;;;;;;18.67;9.65;;;;;;;;;;5130690;27;20047;-80
2021/10/29 16:31:21;;;;;;;31.48;10.63;;;;;;;;;;5101545;27;20105;-81
2021/10/29 16:33:48;;;;;;;20.63;9.90;;;;;;;;;;5106659;27;20433;-80
2021/10/29 16:36:16;;;;;;;19.27;10.52;;;;;;;;;;5125764;27;20465;-80
2021/10/29 16:38:52;;;;;;;24.55;11.00;;;;;;;;;;5123067;27;20075;-80
2021/10/29 16:41:20;;;;;;;24.35;10.43;;;;;;;;;;5133038;27;20050;-80
2021/10/29 16:43:47;;;;;;;20.52;10.65;;;;;;;;;;5125990;27;20089;-80
2021/10/29 16:46:17;;;;;;;25.02;10.77;;;;;;;;;;5131007;27;20115;-81
2021/10/29 16:48:45;;;;;;;20.17;10.82;;;;;;;;;;5093903;28;20076;-80
2021/10/29 16:51:15;;;;;;;24.55;12.45;;;;;;;;;;5123704;27;20100;-81
2021/10/29 16:53:45;;;;;;;22.88;11.32;;;;;;;;;;5096024;27;20105;-80
2021/10/29 16:56:13;;;;;;;22.67;11.95;;;;;;;;;;5114209;27;20106;-80
2021/10/29 16:58:42;;;;;;;23.90;12.45;;;;;;;;;;5129642;27;20166;-81
2021/10/29 17:01:09;;;;;;;25.88;12.10;;;;;;;;;;5123786;27;20142;-80
2021/10/29 17:03:47;;;;;;;24.38;11.77;;;;;;;;;;5122358;27;20043;-81
2021/10/29 17:06:16;;;;;;;23.48;11.88;;;;;;;;;;5123229;27;20093;-81
2021/10/29 17:08:43;;;;;;;26.20;13.35;;;;;;;;;;5111630;27;20131;-80
2021/10/29 17:11:21;;;;;;;21.65;12.02;;;;;;;;;;5103941;27;20384;-80
2021/10/29 17:13:49;;;;;;;29.27;12.88;;;;;;;;;;5112070;28;20054;-81
2021/10/29 17:16:19;;;;;;;22.55;11.85;;;;;;;;;;5122855;27;20459;-81
2021/10/29 17:18:47;;;;;;;24.98;12.77;;;;;;;;;;5132284;27;20526;-80
2021/10/29 17:21:19;;;;;;;25.80;13.15;;;;;;;;;;5125219;27;20510;-81
2021/10/29 17:23:46;;;;;;;26.20;12.60;;;;;;;;;;5119655;27;20139;-81
2021/10/29 17:26:13;;;;;;;27.30;13.38;;;;;;;;;;5129168;27;20040;-81
2021/10/29 17:28:40;;;;;;;32.67;14.05;;;;;;;;;;5128919;27;20129;-74
2021/10/29 17:31:21;;;;;;;28.35;13.38;;;;;;;;;;5115690;27;20066;-75
2021/10/29 17:33:49;;;;;;;29.10;13.70;;;;;;;;;;5127174;27;20111;-75
2021/10/29 17:36:17;;;;;;;26.23;12.85;;;;;;;;;;5117517;27;20050;-76
2021/10/29 17:38:50;;;;;;;25.77;13.07;;;;;;;;;;5103675;27;20149;-75
2021/10/29 17:41:18;;;;;;;28.95;13.90;;;;;;;;;;5101860;28;20058;-76
2021/10/29 17:43:45;;;;;;;26.75;12.85;;;;;;;;;;5121048;27;20141;-75
2021/10/29 17:46:12;;;;;;;24.45;13.85;;;;;;;;;;5119117;28;20107;-86
2021/10/29 17:48:39;;;;;;;26.40;15.05;;;;;;;;;;5111019;28;20098;-85
2021/10/29 17:51:06;;;;;;;26.15;13.93;;;;;;;;;;5122600;28;20487;-82
2021/10/29 17:53:34;;;;;;;27.63;14.05;;;;;;;;;;5125853;28;20043;-81
2021/10/29 17:56:05;;;;;;;28.50;14.05;;;;;;;;;;5111202;28;20047;-82
2021/10/29 17:58:34;;;;;;;31.55;14.73;;;;;;;;;;5127896;28;20097;-82
2021/10/29 18:01:03;;;;;;;36.55;16.27;;;;;;;;;;5131396;28;20151;-84
2021/10/29 18:03:31;;;;;;;39.03;16.23;;;;;;;;;;5111889;28;20046;-82
2021/10/29 18:05:58;;;;;;;35.33;15.82;;;;;;;;;;5106205;27;20126;-83
2021/10/29 18:08:37;;;;;;;33.47;15.05;;;;;;;;;;5123458;28;20051;-83
2021/10/29 18:11:06;;;;;;;31.50;15.23;;;;;;;;;;5122366;28;20077;-83
2021/10/29 18:13:44;;;;;;;32.28;16.38;;;;;;;;;;5119012;28;20096;-82
2021/10/29 18:16:19;;;;;;;33.65;16.10;;;;;;;;;;5118316;27;20112;-83
2021/10/29 18:18:50;;;;;;;40.85;18.60;;;;;;;;;;5098085;28;20411;-83
2021/10/29 18:21:23;;;;;;;34.35;18.08;;;;;;;;;;5124285;28;20093;-82
2021/10/29 18:23:54;;;;;;;35.28;17.48;;;;;;;;;;5111269;28;20385;-83
2021/10/29 18:26:22;;;;;;;41.65;19.33;;;;;;;;;;5111944;28;20146;-85
2021/10/29 18:28:54;;;;;;;46.15;19.83;;;;;;;;;;5124093;28;20540;-84
2021/10/29 18:31:22;;;;;;;42.03;19.05;;;;;;;;;;5125182;28;20051;-83
2021/10/29 18:33:50;;;;;;;44.38;20.77;;;;;;;;;;5100486;27;20066;-83
2021/10/29 18:36:18;;;;;;;40.92;19.90;;;;;;;;;;5116078;27;20047;-83
2021/10/29 18:38:49;;;;;;;43.45;19.52;;;;;;;;;;5134974;27;20138;-83
2021/10/29 18:41:21;;;;;;;44.88;20.92;;;;;;;;;;5114620;27;20055;-84
2021/10/29 18:43:48;;;;;;;45.95;21.90;;;;;;;;;;5102804;27;20134;-84
2021/10/29 18:46:18;;;;;;;41.92;21.45;;;;;;;;;;5103943;27;20749;-84